Accueil
METAR-TAF:

METAR-TAF

Aéroports :

Aéroport de Longyearbyen

Longyearbyen, Norvège

latitude: 78-15N, longitude: 015-28E, altitude: 2 m

Observation

Le bulletin a été fait il y a 27 minutes, à 10:50 UTC
Vent 4 kt de ouest/sud-ouest
Température 7°C
Humidité 81%
Pression 987 hPa
Visibilité 10 km ou plus
Nuages épars à une hauteur de 3000 ft
averses à proximité

METAR: ENSB 201050Z 25004KT 9999 VCSH SCT030 07/04 Q0987 NOSIG RMK WIND 1400FT 30003KT

Heure: 13:17 (11:17 UTC)

Prévision

Prévision valable du 20 à 06 UTC au 21 à 06 UTC
Vent 8 kt de ouest/sud-ouest
Visibilité 10 km ou plus
Quelques nuages à une hauteur de 1500 ft
Nuages fragmentés à une hauteur de 2500 ft
Temporairement
du 20 à 18 UTC au 21 à 06 UTC
Vent 12 kt de est/sud-est
Nuages fragmentés à une hauteur de 1400 ft
pluie

TAF: ENSB 2006/2106 25008KT 9999 FEW015 BKN025 TEMPO 2018/2106 11012KT RA BKN014

Observations et prévisions météorologiques de plus de 4000 aéroports (messages METAR et TAF).

Les stations disponibles sont représentées par des disques jaunes et rouges sur la carte.

Passer la souris dessus pour voir le nom de la station.

Cliquer dessus pour voir les observations et prévisions météorologiques.

Pour changer de carte: cliquez sur les boutons verts avec une croix noire pour zoomer, sur le bouton vert avec un tiret pour effectuer un zoom arrière, ou sur les flèches vertes pour les cartes adjacentes.


METAR-TAF: